This is the latest recevied weather packets stored in our database for station/object KC3BBT-13. If no packets are shown the sender has not sent any weather packets the latest 1 day(s).
| Time | Temp. | Humidity | Pressure | Rain* | Wind** | Luminosity | Snow |
|---|---|---|---|---|---|---|---|
| 1778039101 | 22.22° C | 51% | 1011.4 hPa | 0 mm | 2.68 m/s, 158° | - | - |
| 1778038201 | 22.22° C | 50% | 1011.3 hPa | 0 mm | 2.24 m/s, 246° | - | - |
| 1778037326 | 22.78° C | 49% | 1011.4 hPa | 0 mm | 1.34 m/s, 195° | - | - |
| 1778036499 | 22.78° C | 48% | 1011.4 hPa | 0 mm | 0.89 m/s, 143° | - | - |
| 1778035626 | 22.78° C | 47% | 1011.3 hPa | 0 mm | 2.68 m/s, 190° | - | - |
| 1778034816 | 23.33° C | 49% | 1011.4 hPa | 0 mm | 1.79 m/s, 162° | - | - |
| 1778034076 | 23.33° C | 47% | 1011.4 hPa | 0 mm | 0 m/s | - | - |
| 1778033221 | 23.33° C | 44% | 1011.4 hPa | 0 mm | 2.68 m/s, 233° | - | - |
| 1778032401 | 23.33° C | 43% | 1011.3 hPa | 0 mm | 0.89 m/s, 198° | - | - |
| 1778031506 | 23.89° C | 42% | 1011.2 hPa | 0 mm | 0 m/s | - | - |
| 1778030641 | 23.89° C | 41% | 1011 hPa | 0 mm | 0 m/s | - | - |
| 1778029978 | 24.44° C | 38% | 1010.9 hPa | 0 mm | 1.79 m/s, 237° | - | - |
| 1778029791 | 24.44° C | 38% | 1010.9 hPa | 0 mm | 1.79 m/s, 237° | - | - |
| 1778028916 | 24.44° C | 37% | 1010.8 hPa | 0 mm | 0 m/s | - | - |
| 1778028146 | 25° C | 35% | 1010.5 hPa | 0 mm | 0.45 m/s, 235° | - | - |
| 1778027396 | 25° C | 34% | 1010.4 hPa | 0 mm | 0 m/s | - | - |
| 1778026596 | 25.56° C | 33% | 1010.3 hPa | 0 mm | 0.45 m/s, 182° | - | - |
| 1778025911 | 25.56° C | 32% | 1010.2 hPa | 0 mm | 1.34 m/s, 224° | - | - |
| 1778025811 | 25.56° C | 32% | 1010.2 hPa | 0 mm | 1.34 m/s, 224° | - | - |
| 1778024920 | 26.11° C | 33% | 1010.2 hPa | 0 mm | 2.68 m/s, 194° | - | - |
| 1778024101 | 26.11° C | 32% | 1010.1 hPa | 0 mm | 2.24 m/s, 294° | - | - |
| 1778023221 | 26.67° C | 31% | 1010.1 hPa | 0 mm | 2.24 m/s, 221° | - | - |
| 1778022396 | 26.67° C | 30% | 1010.2 hPa | 0 mm | 3.58 m/s, 193° | - | - |
| 1778021641 | 26.67° C | 29% | 1010.1 hPa | 0 mm | 0.89 m/s, 327° | - | - |
| 1778020741 | 26.67° C | 29% | 1010.3 hPa | 0 mm | 0.45 m/s, 225° | - | - |
* Rain latest hour (hover to see other rain measurements)
** Current wind speed in m/s (hover to see current wind gust speed)